sensor_id;sensor_type;location;lat;lon;timestamp;pressure;altitude;pressure_sealevel;temperature;humidity
10988;BME280;5547;42.672;23.230;2023-03-30T00:02:51;93824.28;;;2.53;58.87
10988;BME280;5547;42.672;23.230;2023-03-30T00:05:53;93820.66;;;2.42;59.59
10988;BME280;5547;42.672;23.230;2023-03-30T00:08:58;93832.34;;;2.44;59.61
10988;BME280;5547;42.672;23.230;2023-03-30T00:11:58;93819.22;;;2.44;60.99
10988;BME280;5547;42.672;23.230;2023-03-30T00:15:05;93814.22;;;2.39;59.90
10988;BME280;5547;42.672;23.230;2023-03-30T00:18:06;93808.22;;;2.23;59.73
10988;BME280;5547;42.672;23.230;2023-03-30T00:21:07;93819.97;;;2.45;59.51
10988;BME280;5547;42.672;23.230;2023-03-30T00:24:09;93822.00;;;2.36;60.88
10988;BME280;5547;42.672;23.230;2023-03-30T00:27:09;93814.97;;;2.24;62.04
10988;BME280;5547;42.672;23.230;2023-03-30T00:30:12;93822.78;;;2.36;63.21
10988;BME280;5547;42.672;23.230;2023-03-30T00:33:14;93792.13;;;2.08;64.19
10988;BME280;5547;42.672;23.230;2023-03-30T00:36:15;93794.00;;;2.08;64.38
10988;BME280;5547;42.672;23.230;2023-03-30T00:39:15;93767.22;;;1.86;65.14
10988;BME280;5547;42.672;23.230;2023-03-30T00:42:18;93824.13;;;2.30;65.32
10988;BME280;5547;42.672;23.230;2023-03-30T00:45:25;93811.31;;;2.13;67.56
10988;BME280;5547;42.672;23.230;2023-03-30T00:51:27;93759.59;;;1.65;67.61
10988;BME280;5547;42.672;23.230;2023-03-30T00:54:28;93729.28;;;1.52;69.26
10988;BME280;5547;42.672;23.230;2023-03-30T00:57:29;93796.03;;;1.99;69.41
10988;BME280;5547;42.672;23.230;2023-03-30T01:00:30;93801.66;;;1.85;69.71
10988;BME280;5547;42.672;23.230;2023-03-30T01:03:35;93801.19;;;2.11;70.56
10988;BME280;5547;42.672;23.230;2023-03-30T01:06:38;93765.25;;;1.67;72.35
10988;BME280;5547;42.672;23.230;2023-03-30T01:09:40;93765.31;;;1.55;73.51
10988;BME280;5547;42.672;23.230;2023-03-30T01:12:42;93809.13;;;1.83;73.68
10988;BME280;5547;42.672;23.230;2023-03-30T01:16:22;93806.06;;;1.81;74.54
10988;BME280;5547;42.672;23.230;2023-03-30T01:39:42;93831.13;;;1.38;78.29
10988;BME280;5547;42.672;23.230;2023-03-30T01:42:51;93823.03;;;1.43;77.45
10988;BME280;5547;42.672;23.230;2023-03-30T01:46:02;93795.28;;;1.14;78.36
10988;BME280;5547;42.672;23.230;2023-03-30T01:52:15;93819.03;;;1.33;77.79
10988;BME280;5547;42.672;23.230;2023-03-30T01:55:43;93824.25;;;1.33;77.49
10988;BME280;5547;42.672;23.230;2023-03-30T01:59:07;93834.19;;;1.40;76.80
10988;BME280;5547;42.672;23.230;2023-03-30T02:02:12;93829.63;;;1.37;76.64
10988;BME280;5547;42.672;23.230;2023-03-30T02:05:16;93776.66;;;1.03;75.45
10988;BME280;5547;42.672;23.230;2023-03-30T02:08:22;93805.13;;;1.45;74.57
10988;BME280;5547;42.672;23.230;2023-03-30T02:11:24;93824.69;;;1.63;73.65
10988;BME280;5547;42.672;23.230;2023-03-30T02:14:29;93821.31;;;1.63;73.57
10988;BME280;5547;42.672;23.230;2023-03-30T02:17:32;93826.25;;;1.64;73.83
10988;BME280;5547;42.672;23.230;2023-03-30T02:20:33;93825.81;;;1.62;74.35
10988;BME280;5547;42.672;23.230;2023-03-30T02:23:38;93826.84;;;1.74;73.71
10988;BME280;5547;42.672;23.230;2023-03-30T02:26:41;93818.56;;;1.72;74.56
10988;BME280;5547;42.672;23.230;2023-03-30T02:29:43;93819.22;;;1.68;76.13
10988;BME280;5547;42.672;23.230;2023-03-30T02:32:55;93808.47;;;1.58;76.85
10988;BME280;5547;42.672;23.230;2023-03-30T02:49:28;93836.25;;;1.75;79.50
10988;BME280;5547;42.672;23.230;2023-03-30T02:52:55;93830.13;;;1.71;79.90
10988;BME280;5547;42.672;23.230;2023-03-30T02:56:22;93836.47;;;1.70;80.82
10988;BME280;5547;42.672;23.230;2023-03-30T02:59:31;93823.50;;;1.61;81.70
10988;BME280;5547;42.672;23.230;2023-03-30T03:02:37;93835.72;;;1.69;81.99
10988;BME280;5547;42.672;23.230;2023-03-30T03:05:40;93832.66;;;1.67;82.53
10988;BME280;5547;42.672;23.230;2023-03-30T03:08:43;93829.91;;;1.76;83.19
10988;BME280;5547;42.672;23.230;2023-03-30T03:11:46;93777.22;;;1.24;84.67
10988;BME280;5547;42.672;23.230;2023-03-30T03:14:47;93782.25;;;1.30;84.48
10988;BME280;5547;42.672;23.230;2023-03-30T03:17:47;93838.81;;;1.59;85.59
10988;BME280;5547;42.672;23.230;2023-03-30T03:20:49;93811.59;;;1.35;86.65
10988;BME280;5547;42.672;23.230;2023-03-30T03:23:49;93844.81;;;1.59;85.88
10988;BME280;5547;42.672;23.230;2023-03-30T03:26:49;93814.41;;;1.42;87.08
10988;BME280;5547;42.672;23.230;2023-03-30T03:29:50;93839.91;;;1.58;87.63
10988;BME280;5547;42.672;23.230;2023-03-30T03:32:50;93806.53;;;1.42;89.15
10988;BME280;5547;42.672;23.230;2023-03-30T03:35:51;93843.53;;;1.53;89.56
10988;BME280;5547;42.672;23.230;2023-03-30T03:38:53;93819.03;;;1.33;90.43
10988;BME280;5547;42.672;23.230;2023-03-30T03:41:53;93805.84;;;1.30;91.80
10988;BME280;5547;42.672;23.230;2023-03-30T03:44:54;93821.31;;;1.35;92.14
10988;BME280;5547;42.672;23.230;2023-03-30T03:47:54;93828.75;;;1.33;92.38
10988;BME280;5547;42.672;23.230;2023-03-30T03:50:57;93856.97;;;1.52;91.28
10988;BME280;5547;42.672;23.230;2023-03-30T03:53:58;93831.88;;;1.38;90.78
10988;BME280;5547;42.672;23.230;2023-03-30T03:56:58;93827.44;;;1.39;91.82
10988;BME280;5547;42.672;23.230;2023-03-30T03:59:59;93849.22;;;1.55;90.70
10988;BME280;5547;42.672;23.230;2023-03-30T04:02:59;93839.19;;;1.45;90.74
10988;BME280;5547;42.672;23.230;2023-03-30T04:06:00;93834.38;;;1.47;90.28
10988;BME280;5547;42.672;23.230;2023-03-30T04:09:01;93860.22;;;1.61;89.73
10988;BME280;5547;42.672;23.230;2023-03-30T04:12:02;93840.91;;;1.53;88.60
10988;BME280;5547;42.672;23.230;2023-03-30T04:15:04;93763.78;;;0.98;88.75
10988;BME280;5547;42.672;23.230;2023-03-30T04:18:05;93830.88;;;1.55;90.24
10988;BME280;5547;42.672;23.230;2023-03-30T04:21:07;93841.63;;;1.66;89.60
10988;BME280;5547;42.672;23.230;2023-03-30T04:24:12;93849.78;;;1.77;87.54
10988;BME280;5547;42.672;23.230;2023-03-30T04:27:13;93851.53;;;1.73;87.07
10988;BME280;5547;42.672;23.230;2023-03-30T04:30:16;93853.91;;;1.78;87.89
10988;BME280;5547;42.672;23.230;2023-03-30T04:33:17;93847.78;;;1.86;87.67
10988;BME280;5547;42.672;23.230;2023-03-30T04:36:19;93837.34;;;1.74;86.60
10988;BME280;5547;42.672;23.230;2023-03-30T04:39:19;93820.22;;;1.64;86.91
10988;BME280;5547;42.672;23.230;2023-03-30T04:42:20;93832.31;;;1.68;87.83
10988;BME280;5547;42.672;23.230;2023-03-30T04:45:20;93827.88;;;1.69;86.46
10988;BME280;5547;42.672;23.230;2023-03-30T04:48:22;93842.78;;;1.81;86.31
10988;BME280;5547;42.672;23.230;2023-03-30T04:51:23;93862.25;;;1.96;86.14
10988;BME280;5547;42.672;23.230;2023-03-30T04:54:23;93852.34;;;1.89;87.14
10988;BME280;5547;42.672;23.230;2023-03-30T04:57:24;93736.78;;;1.38;85.50
10988;BME280;5547;42.672;23.230;2023-03-30T05:00:24;93808.53;;;1.89;85.31
10988;BME280;5547;42.672;23.230;2023-03-30T05:03:26;93863.00;;;2.24;84.59
10988;BME280;5547;42.672;23.230;2023-03-30T05:06:26;93843.09;;;2.23;85.01
10988;BME280;5547;42.672;23.230;2023-03-30T05:09:28;93870.88;;;2.40;84.53
10988;BME280;5547;42.672;23.230;2023-03-30T05:12:29;93858.94;;;2.27;83.36
10988;BME280;5547;42.672;23.230;2023-03-30T05:15:29;93851.81;;;2.27;82.57
10988;BME280;5547;42.672;23.230;2023-03-30T05:18:30;93874.50;;;2.51;82.07
10988;BME280;5547;42.672;23.230;2023-03-30T05:21:30;93866.63;;;2.51;81.92
10988;BME280;5547;42.672;23.230;2023-03-30T05:24:31;93864.88;;;2.56;80.80
10988;BME280;5547;42.672;23.230;2023-03-30T05:27:32;93863.09;;;2.60;81.40
10988;BME280;5547;42.672;23.230;2023-03-30T05:30:32;93824.28;;;2.53;82.37
10988;BME280;5547;42.672;23.230;2023-03-30T05:33:33;93853.38;;;2.95;79.50
10988;BME280;5547;42.672;23.230;2023-03-30T05:36:33;93840.66;;;2.98;79.10
10988;BME280;5547;42.672;23.230;2023-03-30T05:39:34;93828.31;;;2.98;78.03
10988;BME280;5547;42.672;23.230;2023-03-30T05:42:35;93865.84;;;3.34;78.14
10988;BME280;5547;42.672;23.230;2023-03-30T05:45:36;93852.38;;;3.35;76.51
10988;BME280;5547;42.672;23.230;2023-03-30T05:48:36;93825.22;;;3.12;76.43
10988;BME280;5547;42.672;23.230;2023-03-30T05:51:37;93858.66;;;3.50;75.92
10988;BME280;5547;42.672;23.230;2023-03-30T05:54:37;93846.78;;;3.56;75.48
10988;BME280;5547;42.672;23.230;2023-03-30T05:57:38;93826.06;;;3.35;75.12
10988;BME280;5547;42.672;23.230;2023-03-30T06:00:38;93848.38;;;3.61;75.62
10988;BME280;5547;42.672;23.230;2023-03-30T06:03:40;93873.16;;;3.79;75.39
10988;BME280;5547;42.672;23.230;2023-03-30T06:06:41;93882.75;;;4.11;74.17
10988;BME280;5547;42.672;23.230;2023-03-30T06:09:41;93882.09;;;4.17;73.77
10988;BME280;5547;42.672;23.230;2023-03-30T06:12:42;93874.00;;;3.84;73.95
10988;BME280;5547;42.672;23.230;2023-03-30T06:15:46;93837.41;;;3.78;73.75
10988;BME280;5547;42.672;23.230;2023-03-30T06:18:46;93903.97;;;4.41;72.25
10988;BME280;5547;42.672;23.230;2023-03-30T06:21:47;93900.22;;;4.42;73.27
10988;BME280;5547;42.672;23.230;2023-03-30T06:24:47;93850.59;;;4.44;70.77
10988;BME280;5547;42.672;23.230;2023-03-30T06:27:47;93889.06;;;4.06;75.22
10988;BME280;5547;42.672;23.230;2023-03-30T06:30:48;93861.44;;;3.77;77.01
10988;BME280;5547;42.672;23.230;2023-03-30T06:33:48;93908.66;;;3.89;79.20
10988;BME280;5547;42.672;23.230;2023-03-30T06:36:50;93819.97;;;3.12;80.40
10988;BME280;5547;42.672;23.230;2023-03-30T06:39:51;93864.09;;;3.22;81.63
10988;BME280;5547;42.672;23.230;2023-03-30T06:42:51;93896.41;;;3.23;82.95
10988;BME280;5547;42.672;23.230;2023-03-30T06:45:54;93884.13;;;3.46;82.21
10988;BME280;5547;42.672;23.230;2023-03-30T06:48:55;93890.25;;;3.34;83.47
10988;BME280;5547;42.672;23.230;2023-03-30T06:51:55;93920.56;;;3.64;83.90
10988;BME280;5547;42.672;23.230;2023-03-30T06:54:56;93857.47;;;3.28;83.50
10988;BME280;5547;42.672;23.230;2023-03-30T06:57:56;93917.19;;;3.83;82.86
10988;BME280;5547;42.672;23.230;2023-03-30T07:00:57;93889.63;;;3.96;82.16
10988;BME280;5547;42.672;23.230;2023-03-30T07:03:58;93859.69;;;4.04;81.17
10988;BME280;5547;42.672;23.230;2023-03-30T07:06:58;93856.78;;;4.09;81.14
10988;BME280;5547;42.672;23.230;2023-03-30T07:09:59;93897.63;;;4.22;81.53
10988;BME280;5547;42.672;23.230;2023-03-30T07:12:59;93916.16;;;4.49;81.85
10988;BME280;5547;42.672;23.230;2023-03-30T07:16:00;93917.34;;;4.75;80.64
10988;BME280;5547;42.672;23.230;2023-03-30T07:19:00;93875.41;;;4.43;78.62
10988;BME280;5547;42.672;23.230;2023-03-30T07:22:01;93929.22;;;5.11;78.51
10988;BME280;5547;42.672;23.230;2023-03-30T07:25:02;93926.13;;;5.32;76.09
10988;BME280;5547;42.672;23.230;2023-03-30T07:28:04;93910.25;;;6.16;71.74
10988;BME280;5547;42.672;23.230;2023-03-30T07:31:09;93930.34;;;6.61;70.34
10988;BME280;5547;42.672;23.230;2023-03-30T07:34:10;93913.63;;;6.50;66.80
10988;BME280;5547;42.672;23.230;2023-03-30T07:37:11;93876.56;;;6.43;64.17
10988;BME280;5547;42.672;23.230;2023-03-30T07:40:13;93905.75;;;7.02;65.08
10988;BME280;5547;42.672;23.230;2023-03-30T07:43:13;93918.41;;;7.30;60.57
10988;BME280;5547;42.672;23.230;2023-03-30T07:46:14;93920.69;;;7.90;59.17
10988;BME280;5547;42.672;23.230;2023-03-30T07:49:15;93922.22;;;7.98;57.67
10988;BME280;5547;42.672;23.230;2023-03-30T07:52:15;93876.72;;;7.75;57.61
10988;BME280;5547;42.672;23.230;2023-03-30T07:55:16;93927.53;;;8.06;56.41
10988;BME280;5547;42.672;23.230;2023-03-30T07:58:16;93929.75;;;7.93;59.03
10988;BME280;5547;42.672;23.230;2023-03-30T08:01:17;93935.88;;;8.04;55.34
10988;BME280;5547;42.672;23.230;2023-03-30T08:04:17;93940.16;;;7.53;56.78
10988;BME280;5547;42.672;23.230;2023-03-30T08:07:18;93942.41;;;8.35;55.43
10988;BME280;5547;42.672;23.230;2023-03-30T08:10:18;93903.41;;;8.32;56.62
10988;BME280;5547;42.672;23.230;2023-03-30T08:13:19;93935.97;;;8.33;54.11
10988;BME280;5547;42.672;23.230;2023-03-30T08:16:19;93919.69;;;8.27;55.31
10988;BME280;5547;42.672;23.230;2023-03-30T08:19:21;93915.72;;;7.85;54.31
10988;BME280;5547;42.672;23.230;2023-03-30T08:22:22;93914.00;;;8.32;53.55
10988;BME280;5547;42.672;23.230;2023-03-30T08:25:23;93928.38;;;8.24;52.66
10988;BME280;5547;42.672;23.230;2023-03-30T08:28:23;93926.81;;;8.12;52.51
10988;BME280;5547;42.672;23.230;2023-03-30T08:31:24;93921.59;;;8.37;53.51
10988;BME280;5547;42.672;23.230;2023-03-30T08:34:25;93931.03;;;8.28;50.21
10988;BME280;5547;42.672;23.230;2023-03-30T08:37:25;93925.41;;;8.40;51.14
10988;BME280;5547;42.672;23.230;2023-03-30T08:40:25;93891.66;;;8.26;50.19
10988;BME280;5547;42.672;23.230;2023-03-30T08:43:51;93893.50;;;8.15;49.56
10988;BME280;5547;42.672;23.230;2023-03-30T08:46:53;93929.25;;;8.53;49.66
10988;BME280;5547;42.672;23.230;2023-03-30T08:50:13;93912.38;;;7.95;50.17
10988;BME280;5547;42.672;23.230;2023-03-30T08:53:15;93892.16;;;7.62;50.88
10988;BME280;5547;42.672;23.230;2023-03-30T08:56:20;93915.88;;;8.25;51.21
10988;BME280;5547;42.672;23.230;2023-03-30T08:59:28;93928.88;;;7.67;51.44
10988;BME280;5547;42.672;23.230;2023-03-30T09:02:36;93904.50;;;7.40;52.00
10988;BME280;5547;42.672;23.230;2023-03-30T09:05:46;93921.41;;;7.87;51.46
10988;BME280;5547;42.672;23.230;2023-03-30T09:08:48;93902.44;;;7.74;51.31
10988;BME280;5547;42.672;23.230;2023-03-30T09:15:09;93885.81;;;7.81;51.26
10988;BME280;5547;42.672;23.230;2023-03-30T09:21:17;93911.59;;;7.91;52.62
10988;BME280;5547;42.672;23.230;2023-03-30T09:24:24;93900.22;;;7.87;52.32
10988;BME280;5547;42.672;23.230;2023-03-30T09:27:44;93901.94;;;7.54;52.33
10988;BME280;5547;42.672;23.230;2023-03-30T09:30:57;93815.63;;;7.32;52.28
10988;BME280;5547;42.672;23.230;2023-03-30T09:34:03;93892.06;;;8.32;51.98
10988;BME280;5547;42.672;23.230;2023-03-30T09:37:17;93893.06;;;7.98;51.99
10988;BME280;5547;42.672;23.230;2023-03-30T09:40:58;93885.94;;;8.17;51.97
10988;BME280;5547;42.672;23.230;2023-03-30T09:44:15;93866.94;;;7.86;52.08
10988;BME280;5547;42.672;23.230;2023-03-30T09:47:34;93862.03;;;7.99;51.39
10988;BME280;5547;42.672;23.230;2023-03-30T09:50:42;93861.69;;;8.08;51.80
10988;BME280;5547;42.672;23.230;2023-03-30T09:53:44;93835.88;;;7.79;52.99
10988;BME280;5547;42.672;23.230;2023-03-30T09:56:45;93868.16;;;8.21;52.44
10988;BME280;5547;42.672;23.230;2023-03-30T09:59:50;93858.66;;;8.06;52.19
10988;BME280;5547;42.672;23.230;2023-03-30T10:02:56;93858.72;;;8.38;51.80
10988;BME280;5547;42.672;23.230;2023-03-30T10:06:08;93847.31;;;8.05;51.93
10988;BME280;5547;42.672;23.230;2023-03-30T10:09:12;93838.94;;;7.92;52.69
10988;BME280;5547;42.672;23.230;2023-03-30T10:12:14;93878.50;;;8.58;51.61
10988;BME280;5547;42.672;23.230;2023-03-30T10:15:20;93869.03;;;8.79;50.28
10988;BME280;5547;42.672;23.230;2023-03-30T10:18:24;93868.75;;;10.15;51.23
10988;BME280;5547;42.672;23.230;2023-03-30T10:21:35;93823.03;;;9.61;47.81
10988;BME280;5547;42.672;23.230;2023-03-30T10:24:48;93811.88;;;9.98;50.11
10988;BME280;5547;42.672;23.230;2023-03-30T10:27:50;93839.69;;;9.72;49.11
10988;BME280;5547;42.672;23.230;2023-03-30T10:31:00;93838.19;;;9.71;48.72
10988;BME280;5547;42.672;23.230;2023-03-30T10:34:04;93857.25;;;9.34;49.28
10988;BME280;5547;42.672;23.230;2023-03-30T10:37:09;93846.19;;;9.60;48.81
10988;BME280;5547;42.672;23.230;2023-03-30T10:40:24;93860.13;;;9.89;48.27
10988;BME280;5547;42.672;23.230;2023-03-30T10:43:29;93851.50;;;9.64;48.58
10988;BME280;5547;42.672;23.230;2023-03-30T10:46:31;93830.94;;;9.82;48.26
10988;BME280;5547;42.672;23.230;2023-03-30T10:49:36;93852.44;;;10.13;47.40
10988;BME280;5547;42.672;23.230;2023-03-30T11:02:48;93828.97;;;10.64;46.71
10988;BME280;5547;42.672;23.230;2023-03-30T11:05:51;93801.38;;;11.33;43.19
10988;BME280;5547;42.672;23.230;2023-03-30T11:08:54;93821.19;;;12.01;43.12
10988;BME280;5547;42.672;23.230;2023-03-30T11:12:10;93791.31;;;12.13;42.34
10988;BME280;5547;42.672;23.230;2023-03-30T11:15:18;93790.44;;;11.93;42.90
10988;BME280;5547;42.672;23.230;2023-03-30T11:18:27;93790.38;;;11.96;43.80
10988;BME280;5547;42.672;23.230;2023-03-30T11:24:42;93773.88;;;10.64;42.89
10988;BME280;5547;42.672;23.230;2023-03-30T11:31:26;93787.53;;;11.80;42.12
10988;BME280;5547;42.672;23.230;2023-03-30T11:38:02;93785.94;;;11.86;42.80
10988;BME280;5547;42.672;23.230;2023-03-30T11:41:14;93727.25;;;10.90;43.40
10988;BME280;5547;42.672;23.230;2023-03-30T11:44:15;93731.38;;;11.33;42.88
10988;BME280;5547;42.672;23.230;2023-03-30T11:47:31;93710.19;;;11.22;42.56
10988;BME280;5547;42.672;23.230;2023-03-30T11:50:40;93763.69;;;11.35;43.00
10988;BME280;5547;42.672;23.230;2023-03-30T11:57:03;93763.34;;;11.98;43.74
10988;BME280;5547;42.672;23.230;2023-03-30T12:06:26;93722.13;;;11.45;43.47
10988;BME280;5547;42.672;23.230;2023-03-30T12:09:37;93745.53;;;11.61;44.58
10988;BME280;5547;42.672;23.230;2023-03-30T12:12:40;93711.94;;;11.36;42.70
10988;BME280;5547;42.672;23.230;2023-03-30T12:19:06;93736.25;;;11.69;44.42
10988;BME280;5547;42.672;23.230;2023-03-30T12:22:14;93682.84;;;11.80;42.64
10988;BME280;5547;42.672;23.230;2023-03-30T12:28:43;93686.06;;;11.67;43.20
10988;BME280;5547;42.672;23.230;2023-03-30T12:38:53;93691.88;;;11.28;43.08
10988;BME280;5547;42.672;23.230;2023-03-30T12:42:26;93646.69;;;10.90;43.47
10988;BME280;5547;42.672;23.230;2023-03-30T12:45:30;93681.97;;;11.59;42.35
10988;BME280;5547;42.672;23.230;2023-03-30T12:48:42;93615.44;;;10.98;42.23
10988;BME280;5547;42.672;23.230;2023-03-30T13:05:29;93616.44;;;11.38;42.78
10988;BME280;5547;42.672;23.230;2023-03-30T13:08:35;93655.38;;;11.83;42.09
10988;BME280;5547;42.672;23.230;2023-03-30T13:21:17;93628.47;;;10.88;45.52
10988;BME280;5547;42.672;23.230;2023-03-30T13:27:35;93633.75;;;11.50;43.81
10988;BME280;5547;42.672;23.230;2023-03-30T13:30:36;93607.56;;;11.18;44.82
10988;BME280;5547;42.672;23.230;2023-03-30T13:33:41;93608.94;;;11.29;46.67
10988;BME280;5547;42.672;23.230;2023-03-30T13:37:18;93603.50;;;11.91;44.90
10988;BME280;5547;42.672;23.230;2023-03-30T13:46:52;93599.25;;;11.97;42.00
10988;BME280;5547;42.672;23.230;2023-03-30T13:49:59;93598.88;;;12.18;41.05
10988;BME280;5547;42.672;23.230;2023-03-30T13:53:08;93590.41;;;12.00;40.42
10988;BME280;5547;42.672;23.230;2023-03-30T13:56:09;93580.47;;;11.77;42.52
10988;BME280;5547;42.672;23.230;2023-03-30T13:59:16;93578.16;;;12.06;42.00
10988;BME280;5547;42.672;23.230;2023-03-30T14:02:20;93579.25;;;12.29;42.32
10988;BME280;5547;42.672;23.230;2023-03-30T14:05:24;93578.16;;;12.06;40.81
10988;BME280;5547;42.672;23.230;2023-03-30T14:08:25;93573.09;;;12.12;41.15
10988;BME280;5547;42.672;23.230;2023-03-30T14:11:32;93577.78;;;12.28;40.28
10988;BME280;5547;42.672;23.230;2023-03-30T14:14:36;93581.53;;;12.30;41.22
10988;BME280;5547;42.672;23.230;2023-03-30T14:17:37;93571.69;;;12.04;39.94
10988;BME280;5547;42.672;23.230;2023-03-30T14:20:49;93573.38;;;11.94;42.66
10988;BME280;5547;42.672;23.230;2023-03-30T14:23:52;93551.41;;;12.10;40.22
10988;BME280;5547;42.672;23.230;2023-03-30T14:27:20;93572.09;;;12.26;38.72
10988;BME280;5547;42.672;23.230;2023-03-30T14:30:26;93569.63;;;12.35;40.29
10988;BME280;5547;42.672;23.230;2023-03-30T14:33:28;93529.72;;;11.84;40.36
10988;BME280;5547;42.672;23.230;2023-03-30T14:36:29;93577.06;;;12.24;39.55
10988;BME280;5547;42.672;23.230;2023-03-30T14:39:31;93551.31;;;11.93;39.30
10988;BME280;5547;42.672;23.230;2023-03-30T14:42:33;93492.78;;;11.63;39.36
10988;BME280;5547;42.672;23.230;2023-03-30T14:45:33;93465.06;;;11.80;39.17
10988;BME280;5547;42.672;23.230;2023-03-30T14:48:35;93537.00;;;12.47;39.19
10988;BME280;5547;42.672;23.230;2023-03-30T14:51:40;93549.91;;;12.52;38.73
10988;BME280;5547;42.672;23.230;2023-03-30T14:54:41;93543.97;;;12.21;39.40
10988;BME280;5547;42.672;23.230;2023-03-30T14:57:43;93523.66;;;12.07;39.30
10988;BME280;5547;42.672;23.230;2023-03-30T15:00:44;93532.38;;;11.88;39.98
10988;BME280;5547;42.672;23.230;2023-03-30T15:03:46;93546.53;;;11.81;39.55
10988;BME280;5547;42.672;23.230;2023-03-30T15:06:47;93546.31;;;11.95;40.24
10988;BME280;5547;42.672;23.230;2023-03-30T15:09:58;93540.44;;;11.81;42.42
10988;BME280;5547;42.672;23.230;2023-03-30T15:12:59;93543.25;;;11.97;42.04
10988;BME280;5547;42.672;23.230;2023-03-30T15:16:03;93500.47;;;11.81;40.33
10988;BME280;5547;42.672;23.230;2023-03-30T15:25:29;93466.09;;;12.30;39.95
10988;BME280;5547;42.672;23.230;2023-03-30T15:28:42;93481.34;;;12.49;40.42
10988;BME280;5547;42.672;23.230;2023-03-30T15:31:43;93520.63;;;12.69;39.12
10988;BME280;5547;42.672;23.230;2023-03-30T15:38:28;93523.53;;;11.67;40.87
10988;BME280;5547;42.672;23.230;2023-03-30T15:41:44;93397.44;;;10.56;42.33
10988;BME280;5547;42.672;23.230;2023-03-30T15:44:46;93478.06;;;11.04;41.47
10988;BME280;5547;42.672;23.230;2023-03-30T15:47:46;93508.16;;;11.01;42.83
10988;BME280;5547;42.672;23.230;2023-03-30T15:50:52;93504.59;;;10.84;42.70
10988;BME280;5547;42.672;23.230;2023-03-30T16:00:14;93496.13;;;10.62;43.83
10988;BME280;5547;42.672;23.230;2023-03-30T16:03:48;93497.53;;;10.39;43.94
10988;BME280;5547;42.672;23.230;2023-03-30T16:06:46;93499.88;;;10.34;43.77
10988;BME280;5547;42.672;23.230;2023-03-30T16:09:47;93502.25;;;10.21;43.87
10988;BME280;5547;42.672;23.230;2023-03-30T16:12:47;93482.72;;;9.66;46.35
10988;BME280;5547;42.672;23.230;2023-03-30T16:15:48;93438.38;;;9.14;46.74
10988;BME280;5547;42.672;23.230;2023-03-30T16:18:49;93459.34;;;8.98;47.68
10988;BME280;5547;42.672;23.230;2023-03-30T16:21:53;93496.81;;;9.07;48.59
10988;BME280;5547;42.672;23.230;2023-03-30T16:24:53;93490.50;;;8.87;49.61
10988;BME280;5547;42.672;23.230;2023-03-30T16:27:53;93483.81;;;8.60;52.42
10988;BME280;5547;42.672;23.230;2023-03-30T16:30:56;93500.44;;;8.72;52.80
10988;BME280;5547;42.672;23.230;2023-03-30T16:33:59;93480.84;;;8.51;50.76
10988;BME280;5547;42.672;23.230;2023-03-30T16:37:00;93492.16;;;8.59;50.97
10988;BME280;5547;42.672;23.230;2023-03-30T16:40:01;93443.03;;;8.40;50.56
10988;BME280;5547;42.672;23.230;2023-03-30T16:43:05;93470.03;;;8.87;49.28
10988;BME280;5547;42.672;23.230;2023-03-30T16:46:05;93486.25;;;9.00;49.09
10988;BME280;5547;42.672;23.230;2023-03-30T16:49:17;93493.38;;;9.10;49.44
10988;BME280;5547;42.672;23.230;2023-03-30T16:52:20;93488.78;;;9.14;48.50
10988;BME280;5547;42.672;23.230;2023-03-30T16:55:21;93495.41;;;8.88;50.25
10988;BME280;5547;42.672;23.230;2023-03-30T16:58:21;93441.81;;;8.55;49.71
10988;BME280;5547;42.672;23.230;2023-03-30T17:01:22;93412.34;;;8.35;49.53
10988;BME280;5547;42.672;23.230;2023-03-30T17:04:22;93456.56;;;8.60;50.36
10988;BME280;5547;42.672;23.230;2023-03-30T17:07:23;93488.69;;;8.73;50.52
10988;BME280;5547;42.672;23.230;2023-03-30T17:10:28;93501.50;;;8.85;50.17
10988;BME280;5547;42.672;23.230;2023-03-30T17:13:30;93494.19;;;9.00;48.82
10988;BME280;5547;42.672;23.230;2023-03-30T17:16:31;93438.38;;;8.62;49.37
10988;BME280;5547;42.672;23.230;2023-03-30T17:19:33;93495.69;;;9.08;48.40
10988;BME280;5547;42.672;23.230;2023-03-30T17:22:33;93506.63;;;9.14;48.86
10988;BME280;5547;42.672;23.230;2023-03-30T17:25:34;93490.81;;;8.99;49.47
10988;BME280;5547;42.672;23.230;2023-03-30T17:28:36;93506.34;;;8.94;52.21
10988;BME280;5547;42.672;23.230;2023-03-30T17:31:37;93498.06;;;8.84;50.79
10988;BME280;5547;42.672;23.230;2023-03-30T17:34:38;93500.28;;;8.97;50.52
10988;BME280;5547;42.672;23.230;2023-03-30T17:37:39;93477.97;;;8.87;50.25
10988;BME280;5547;42.672;23.230;2023-03-30T17:40:39;93454.19;;;8.76;51.54
10988;BME280;5547;42.672;23.230;2023-03-30T17:43:41;93469.63;;;8.89;50.77
10988;BME280;5547;42.672;23.230;2023-03-30T17:46:42;93477.59;;;8.89;51.17
10988;BME280;5547;42.672;23.230;2023-03-30T17:49:43;93497.19;;;9.09;50.46
10988;BME280;5547;42.672;23.230;2023-03-30T17:52:44;93473.34;;;9.02;50.58
10988;BME280;5547;42.672;23.230;2023-03-30T17:55:47;93486.25;;;9.03;50.96
10988;BME280;5547;42.672;23.230;2023-03-30T17:58:48;93477.91;;;9.01;50.93
10988;BME280;5547;42.672;23.230;2023-03-30T18:01:48;93476.81;;;8.95;51.03
10988;BME280;5547;42.672;23.230;2023-03-30T18:04:49;93476.81;;;8.92;51.05
10988;BME280;5547;42.672;23.230;2023-03-30T18:07:50;93474.47;;;9.01;49.65
10988;BME280;5547;42.672;23.230;2023-03-30T18:10:59;93474.91;;;8.96;50.17
10988;BME280;5547;42.672;23.230;2023-03-30T18:13:59;93481.31;;;9.02;48.94
10988;BME280;5547;42.672;23.230;2023-03-30T18:17:00;93477.59;;;8.89;50.08
10988;BME280;5547;42.672;23.230;2023-03-30T18:20:00;93471.88;;;8.94;49.51
10988;BME280;5547;42.672;23.230;2023-03-30T18:23:01;93466.19;;;8.92;49.73
10988;BME280;5547;42.672;23.230;2023-03-30T18:26:03;93440.34;;;9.03;49.15
10988;BME280;5547;42.672;23.230;2023-03-30T18:29:17;93419.25;;;8.89;49.31
10988;BME280;5547;42.672;23.230;2023-03-30T18:32:19;93426.50;;;8.81;49.96
10988;BME280;5547;42.672;23.230;2023-03-30T18:35:21;93430.09;;;9.05;48.51
10988;BME280;5547;42.672;23.230;2023-03-30T18:38:22;93454.31;;;9.14;49.12
10988;BME280;5547;42.672;23.230;2023-03-30T18:41:24;93445.72;;;8.96;50.31
10988;BME280;5547;42.672;23.230;2023-03-30T18:44:25;93420.50;;;8.70;51.52